sensor_id;sensor_type;location;lat;lon;timestamp;pressure;altitude;pressure_sealevel;temperature;humidity
8451;BME280;4262;50.980;13.892;2024-02-15T00:00:20;86464.78;;;-142.97;58.54
8451;BME280;4262;50.980;13.892;2024-02-15T00:02:48;86510.09;;;-142.97;58.97
8451;BME280;4262;50.980;13.892;2024-02-15T00:05:18;86510.09;;;-142.97;59.27
8451;BME280;4262;50.980;13.892;2024-02-15T00:07:45;86512.06;;;-142.97;59.32
8451;BME280;4262;50.980;13.892;2024-02-15T00:10:14;86545.56;;;-142.97;59.52
8451;BME280;4262;50.980;13.892;2024-02-15T00:12:41;86577.09;;;-142.97;59.82
8451;BME280;4262;50.980;13.892;2024-02-15T00:15:08;86563.28;;;-142.97;60.00
8451;BME280;4262;50.980;13.892;2024-02-15T00:17:36;86561.31;;;-142.97;59.79
8451;BME280;4262;50.980;13.892;2024-02-15T00:20:03;86581.03;;;-142.97;59.80
8451;BME280;4262;50.980;13.892;2024-02-15T00:22:36;86565.25;;;-142.97;59.70
8451;BME280;4262;50.980;13.892;2024-02-15T00:25:03;86527.84;;;-142.97;59.39
8451;BME280;4262;50.980;13.892;2024-02-15T00:27:31;86584.97;;;-142.97;60.06
8451;BME280;4262;50.980;13.892;2024-02-15T00:30:00;86612.56;;;-142.97;60.00
8451;BME280;4262;50.980;13.892;2024-02-15T00:32:26;86547.53;;;-142.97;60.01
8451;BME280;4262;50.980;13.892;2024-02-15T00:34:53;86673.66;;;-142.97;59.54
8451;BME280;4262;50.980;13.892;2024-02-15T00:37:20;86523.88;;;-142.97;59.17
8451;BME280;4262;50.980;13.892;2024-02-15T00:39:48;86535.72;;;-142.97;59.10
8451;BME280;4262;50.980;13.892;2024-02-15T00:42:15;86486.44;;;-142.97;59.14
8451;BME280;4262;50.980;13.892;2024-02-15T00:44:41;86500.25;;;-142.97;59.06
8451;BME280;4262;50.980;13.892;2024-02-15T00:47:09;86454.94;;;-142.97;58.55
8451;BME280;4262;50.980;13.892;2024-02-15T00:49:37;86417.50;;;-142.97;58.09
8451;BME280;4262;50.980;13.892;2024-02-15T00:52:04;86415.50;;;-142.97;58.27
8451;BME280;4262;50.980;13.892;2024-02-15T00:54:31;86569.22;;;-142.97;59.58
8451;BME280;4262;50.980;13.892;2024-02-15T00:56:59;86512.06;;;-142.97;59.47
8451;BME280;4262;50.980;13.892;2024-02-15T00:59:26;86523.88;;;-142.97;59.61
8451;BME280;4262;50.980;13.892;2024-02-15T01:01:52;86581.03;;;-142.97;59.19
8451;BME280;4262;50.980;13.892;2024-02-15T01:04:20;86478.56;;;-142.97;59.00
8451;BME280;4262;50.980;13.892;2024-02-15T01:06:47;86484.47;;;-142.97;59.07
8451;BME280;4262;50.980;13.892;2024-02-15T01:09:14;86539.66;;;-142.97;59.38
8451;BME280;4262;50.980;13.892;2024-02-15T01:11:40;86523.88;;;-142.97;59.49
8451;BME280;4262;50.980;13.892;2024-02-15T01:14:09;86506.16;;;-142.97;58.94
8451;BME280;4262;50.980;13.892;2024-02-15T01:16:36;86575.13;;;-142.97;59.89
8451;BME280;4262;50.980;13.892;2024-02-15T01:19:03;86508.13;;;-142.97;59.19
8451;BME280;4262;50.980;13.892;2024-02-15T01:21:30;86557.38;;;-142.97;59.85
8451;BME280;4262;50.980;13.892;2024-02-15T01:23:58;86608.63;;;-142.97;60.57
8451;BME280;4262;50.980;13.892;2024-02-15T01:26:26;86405.66;;;-142.97;60.40
8451;BME280;4262;50.980;13.892;2024-02-15T01:28:53;86443.09;;;-142.97;59.20
8451;BME280;4262;50.980;13.892;2024-02-15T01:31:21;86460.84;;;-142.97;58.93
8451;BME280;4262;50.980;13.892;2024-02-15T01:33:48;86512.06;;;-142.97;59.78
8451;BME280;4262;50.980;13.892;2024-02-15T01:36:15;86470.69;;;-142.97;59.17
8451;BME280;4262;50.980;13.892;2024-02-15T01:38:43;86466.75;;;-142.97;59.33
8451;BME280;4262;50.980;13.892;2024-02-15T01:41:11;86567.25;;;-142.97;59.76
8451;BME280;4262;50.980;13.892;2024-02-15T01:43:38;86728.81;;;-142.97;60.60
8451;BME280;4262;50.980;13.892;2024-02-15T01:46:09;86614.53;;;-142.97;60.54
8451;BME280;4262;50.980;13.892;2024-02-15T01:48:39;86681.53;;;-142.97;60.96
8451;BME280;4262;50.980;13.892;2024-02-15T01:51:07;86642.13;;;-142.97;60.49
8451;BME280;4262;50.980;13.892;2024-02-15T01:53:35;86667.72;;;-142.97;60.69
8451;BME280;4262;50.980;13.892;2024-02-15T01:56:03;86681.53;;;-142.97;60.82
8451;BME280;4262;50.980;13.892;2024-02-15T01:58:31;86736.69;;;-142.97;61.63
8451;BME280;4262;50.980;13.892;2024-02-15T02:01:00;86750.50;;;-142.97;61.80
8451;BME280;4262;50.980;13.892;2024-02-15T02:03:27;86746.56;;;-142.97;61.41
8451;BME280;4262;50.980;13.892;2024-02-15T02:05:57;86679.56;;;-142.97;61.20
8451;BME280;4262;50.980;13.892;2024-02-15T02:08:24;86746.56;;;-142.97;61.11
8451;BME280;4262;50.980;13.892;2024-02-15T02:10:51;86608.63;;;-142.97;60.37
8451;BME280;4262;50.980;13.892;2024-02-15T02:13:18;86600.75;;;-142.97;60.56
8451;BME280;4262;50.980;13.892;2024-02-15T02:15:45;86606.66;;;-142.97;60.42
8451;BME280;4262;50.980;13.892;2024-02-15T02:18:12;86819.47;;;-142.97;61.75
8451;BME280;4262;50.980;13.892;2024-02-15T02:20:39;86754.44;;;-142.97;62.28
8451;BME280;4262;50.980;13.892;2024-02-15T02:23:13;86683.50;;;-142.97;61.07
8451;BME280;4262;50.980;13.892;2024-02-15T02:25:42;86630.28;;;-142.97;60.89
8451;BME280;4262;50.980;13.892;2024-02-15T02:28:11;86630.28;;;-142.97;60.98
8451;BME280;4262;50.980;13.892;2024-02-15T02:30:39;86600.75;;;-142.97;60.62
8451;BME280;4262;50.980;13.892;2024-02-15T02:33:10;86624.38;;;-142.97;60.88
8451;BME280;4262;50.980;13.892;2024-02-15T02:35:37;86638.19;;;-142.97;61.15
8451;BME280;4262;50.980;13.892;2024-02-15T02:38:05;86539.66;;;-142.97;60.11
8451;BME280;4262;50.980;13.892;2024-02-15T02:40:32;86510.09;;;-142.97;60.18
8451;BME280;4262;50.980;13.892;2024-02-15T02:43:00;86472.66;;;-142.97;59.53
8451;BME280;4262;50.980;13.892;2024-02-15T02:45:27;86494.34;;;-142.97;59.54
8451;BME280;4262;50.980;13.892;2024-02-15T02:47:54;86439.16;;;-142.97;58.84
8451;BME280;4262;50.980;13.892;2024-02-15T02:50:21;86403.69;;;-142.97;58.88
8451;BME280;4262;50.980;13.892;2024-02-15T02:52:49;86411.56;;;-142.97;58.54
8451;BME280;4262;50.980;13.892;2024-02-15T02:55:16;86413.53;;;-142.97;59.06
8451;BME280;4262;50.980;13.892;2024-02-15T02:57:43;86480.53;;;-142.97;59.52
8451;BME280;4262;50.980;13.892;2024-02-15T03:00:13;86693.34;;;-142.97;60.30
8451;BME280;4262;50.980;13.892;2024-02-15T03:02:42;86657.88;;;-142.97;60.78
8451;BME280;4262;50.980;13.892;2024-02-15T03:05:10;86701.22;;;-142.97;60.91
8451;BME280;4262;50.980;13.892;2024-02-15T03:07:38;86728.81;;;-142.97;61.33
8451;BME280;4262;50.980;13.892;2024-02-15T03:10:07;86659.84;;;-142.97;61.13
8451;BME280;4262;50.980;13.892;2024-02-15T03:12:34;86610.59;;;-142.97;60.39
8451;BME280;4262;50.980;13.892;2024-02-15T03:15:02;86577.09;;;-142.97;60.45
8451;BME280;4262;50.980;13.892;2024-02-15T03:17:31;86596.78;;;-142.97;60.16
8451;BME280;4262;50.980;13.892;2024-02-15T03:19:58;86620.44;;;-142.97;60.64
8451;BME280;4262;50.980;13.892;2024-02-15T03:22:25;86612.56;;;-142.97;60.81
8451;BME280;4262;50.980;13.892;2024-02-15T03:24:55;86583.00;;;-142.97;60.30
8451;BME280;4262;50.980;13.892;2024-02-15T03:27:21;86533.75;;;-142.97;59.76
8451;BME280;4262;50.980;13.892;2024-02-15T03:29:49;86579.06;;;-142.97;60.30
8451;BME280;4262;50.980;13.892;2024-02-15T03:32:17;86612.56;;;-142.97;60.60
8451;BME280;4262;50.980;13.892;2024-02-15T03:34:45;86651.97;;;-142.97;60.86
8451;BME280;4262;50.980;13.892;2024-02-15T03:37:11;86626.34;;;-142.97;60.71
8451;BME280;4262;50.980;13.892;2024-02-15T03:39:38;86726.84;;;-142.97;60.57
8451;BME280;4262;50.980;13.892;2024-02-15T03:42:05;86715.03;;;-142.97;61.26
8451;BME280;4262;50.980;13.892;2024-02-15T03:44:32;86687.44;;;-142.97;60.92
8451;BME280;4262;50.980;13.892;2024-02-15T03:46:59;86831.28;;;-142.97;61.68
8451;BME280;4262;50.980;13.892;2024-02-15T03:49:26;86886.47;;;-142.97;62.41
8451;BME280;4262;50.980;13.892;2024-02-15T03:51:54;86854.94;;;-142.97;62.02
8451;BME280;4262;50.980;13.892;2024-02-15T03:54:22;86849.03;;;-142.97;62.02
8451;BME280;4262;50.980;13.892;2024-02-15T03:56:49;86681.53;;;-142.97;61.05
8451;BME280;4262;50.980;13.892;2024-02-15T03:59:18;86622.41;;;-142.97;60.86
8451;BME280;4262;50.980;13.892;2024-02-15T04:01:47;86651.97;;;-142.97;60.67
8451;BME280;4262;50.980;13.892;2024-02-15T04:04:13;86697.28;;;-142.97;61.16
8451;BME280;4262;50.980;13.892;2024-02-15T04:06:40;86651.97;;;-142.97;60.96
8451;BME280;4262;50.980;13.892;2024-02-15T04:09:09;86717.00;;;-142.97;61.59
8451;BME280;4262;50.980;13.892;2024-02-15T04:11:37;86705.16;;;-142.97;61.34
8451;BME280;4262;50.980;13.892;2024-02-15T04:14:04;86754.44;;;-142.97;61.39
8451;BME280;4262;50.980;13.892;2024-02-15T04:16:30;86744.59;;;-142.97;61.32
8451;BME280;4262;50.980;13.892;2024-02-15T04:18:59;86740.63;;;-142.97;61.44
8451;BME280;4262;50.980;13.892;2024-02-15T04:21:27;86715.03;;;-142.97;61.42
8451;BME280;4262;50.980;13.892;2024-02-15T04:23:53;86697.28;;;-142.97;61.25
8451;BME280;4262;50.980;13.892;2024-02-15T04:26:22;86772.16;;;-142.97;61.05
8451;BME280;4262;50.980;13.892;2024-02-15T04:28:52;86549.50;;;-142.97;59.95
8451;BME280;4262;50.980;13.892;2024-02-15T04:31:19;86657.88;;;-142.97;60.95
8451;BME280;4262;50.980;13.892;2024-02-15T04:33:47;86636.22;;;-142.97;61.03
8451;BME280;4262;50.980;13.892;2024-02-15T04:36:14;86724.88;;;-142.97;61.25
8451;BME280;4262;50.980;13.892;2024-02-15T04:38:45;86718.97;;;-142.97;61.37
8451;BME280;4262;50.980;13.892;2024-02-15T04:41:12;86650.00;;;-142.97;60.79
8451;BME280;4262;50.980;13.892;2024-02-15T04:43:41;86565.25;;;-142.97;60.06
8451;BME280;4262;50.980;13.892;2024-02-15T04:46:09;86608.63;;;-142.97;60.47
8451;BME280;4262;50.980;13.892;2024-02-15T04:48:36;86632.25;;;-142.97;60.70
8451;BME280;4262;50.980;13.892;2024-02-15T04:51:04;86653.94;;;-142.97;60.75
8451;BME280;4262;50.980;13.892;2024-02-15T04:53:30;86687.44;;;-142.97;61.08
8451;BME280;4262;50.980;13.892;2024-02-15T04:55:57;86831.28;;;-142.97;61.55
8451;BME280;4262;50.980;13.892;2024-02-15T04:58:28;86659.84;;;-142.97;61.20
8451;BME280;4262;50.980;13.892;2024-02-15T05:00:56;86565.25;;;-142.97;60.37
8451;BME280;4262;50.980;13.892;2024-02-15T05:03:25;86525.84;;;-142.97;60.58
8451;BME280;4262;50.980;13.892;2024-02-15T05:05:52;86439.16;;;-142.97;59.34
8451;BME280;4262;50.980;13.892;2024-02-15T05:08:19;86389.91;;;-142.97;58.95
8451;BME280;4262;50.980;13.892;2024-02-15T05:10:45;86364.28;;;-142.97;58.50
8451;BME280;4262;50.980;13.892;2024-02-15T05:13:12;86435.22;;;-142.97;59.29
8451;BME280;4262;50.980;13.892;2024-02-15T05:15:39;86598.75;;;-142.97;60.49
8451;BME280;4262;50.980;13.892;2024-02-15T05:18:07;86565.25;;;-142.97;60.66
8451;BME280;4262;50.980;13.892;2024-02-15T05:20:34;86782.03;;;-142.97;61.50
8451;BME280;4262;50.980;13.892;2024-02-15T05:23:00;86780.06;;;-142.97;61.57
8451;BME280;4262;50.980;13.892;2024-02-15T05:25:27;86642.13;;;-142.97;60.69
8451;BME280;4262;50.980;13.892;2024-02-15T05:27:55;86766.25;;;-142.97;61.57
8451;BME280;4262;50.980;13.892;2024-02-15T05:30:23;86805.66;;;-142.97;61.59
8451;BME280;4262;50.980;13.892;2024-02-15T05:32:50;86705.16;;;-142.97;61.29
8451;BME280;4262;50.980;13.892;2024-02-15T05:35:19;86693.34;;;-142.97;60.96
8451;BME280;4262;50.980;13.892;2024-02-15T05:37:46;86488.41;;;-142.97;60.23
8451;BME280;4262;50.980;13.892;2024-02-15T05:40:13;86651.97;;;-142.97;60.71
8451;BME280;4262;50.980;13.892;2024-02-15T05:42:41;86577.09;;;-142.97;60.25
8451;BME280;4262;50.980;13.892;2024-02-15T05:45:31;86699.25;;;-142.97;60.87
8451;BME280;4262;50.980;13.892;2024-02-15T05:48:04;86892.38;;;-142.97;61.83
8451;BME280;4262;50.980;13.892;2024-02-15T05:50:33;86910.13;;;-142.97;61.99
8451;BME280;4262;50.980;13.892;2024-02-15T05:53:00;86823.41;;;-142.97;62.25
8451;BME280;4262;50.980;13.892;2024-02-15T05:55:27;87044.13;;;-142.97;63.26
8451;BME280;4262;50.980;13.892;2024-02-15T05:57:56;87059.88;;;-142.97;63.10
8451;BME280;4262;50.980;13.892;2024-02-15T06:00:23;86784.00;;;-142.97;61.63
8451;BME280;4262;50.980;13.892;2024-02-15T06:02:50;86673.66;;;-142.97;61.24
8451;BME280;4262;50.980;13.892;2024-02-15T06:05:17;86919.97;;;-142.97;62.50
8451;BME280;4262;50.980;13.892;2024-02-15T06:07:46;86864.78;;;-142.97;62.55
8451;BME280;4262;50.980;13.892;2024-02-15T06:10:14;86583.00;;;-142.97;60.87
8451;BME280;4262;50.980;13.892;2024-02-15T06:12:41;86600.75;;;-142.97;60.31
8451;BME280;4262;50.980;13.892;2024-02-15T06:15:08;86405.66;;;-142.97;59.34
8451;BME280;4262;50.980;13.892;2024-02-15T06:17:41;86384.00;;;-142.97;58.95
8451;BME280;4262;50.980;13.892;2024-02-15T06:20:11;86358.38;;;-142.97;58.59
8451;BME280;4262;50.980;13.892;2024-02-15T06:22:40;86456.91;;;-142.97;59.50
8451;BME280;4262;50.980;13.892;2024-02-15T06:25:09;86500.25;;;-142.97;59.84
8451;BME280;4262;50.980;13.892;2024-02-15T06:27:37;86545.56;;;-142.97;59.75
8451;BME280;4262;50.980;13.892;2024-02-15T06:30:07;86717.00;;;-142.97;61.22
8451;BME280;4262;50.980;13.892;2024-02-15T06:32:52;86531.78;;;-142.97;60.30
8451;BME280;4262;50.980;13.892;2024-02-15T06:35:37;86592.84;;;-142.97;60.16
8451;BME280;4262;50.980;13.892;2024-02-15T06:38:21;86498.28;;;-142.97;59.91
8451;BME280;4262;50.980;13.892;2024-02-15T06:41:06;86458.88;;;-142.97;59.65
8451;BME280;4262;50.980;13.892;2024-02-15T06:43:33;86545.56;;;-142.97;59.84
8451;BME280;4262;50.980;13.892;2024-02-15T06:46:05;86510.09;;;-142.97;59.98
8451;BME280;4262;50.980;13.892;2024-02-15T06:48:32;86506.16;;;-142.97;60.22
8451;BME280;4262;50.980;13.892;2024-02-15T06:50:59;86596.78;;;-142.97;60.68
8451;BME280;4262;50.980;13.892;2024-02-15T06:53:26;86667.72;;;-142.97;60.98
8451;BME280;4262;50.980;13.892;2024-02-15T06:55:52;86569.22;;;-142.97;60.71
8451;BME280;4262;50.980;13.892;2024-02-15T06:58:21;86529.81;;;-142.97;60.44
8451;BME280;4262;50.980;13.892;2024-02-15T07:00:48;86559.34;;;-142.97;60.50
8451;BME280;4262;50.980;13.892;2024-02-15T07:03:15;86673.66;;;-142.97;61.55
8451;BME280;4262;50.980;13.892;2024-02-15T07:05:43;86531.78;;;-142.97;60.83
8451;BME280;4262;50.980;13.892;2024-02-15T07:08:10;86523.88;;;-142.97;60.56
8451;BME280;4262;50.980;13.892;2024-02-15T07:10:38;86555.41;;;-142.97;60.89
8451;BME280;4262;50.980;13.892;2024-02-15T07:13:05;86673.66;;;-142.97;61.51
8451;BME280;4262;50.980;13.892;2024-02-15T07:15:34;86624.38;;;-142.97;61.08
8451;BME280;4262;50.980;13.892;2024-02-15T07:18:04;86667.72;;;-142.97;61.42
8451;BME280;4262;50.980;13.892;2024-02-15T07:20:31;86677.59;;;-142.97;61.59
8451;BME280;4262;50.980;13.892;2024-02-15T07:22:58;86801.72;;;-142.97;62.36
8451;BME280;4262;50.980;13.892;2024-02-15T07:25:25;87032.28;;;-142.97;63.58
8451;BME280;4262;50.980;13.892;2024-02-15T07:27:52;87065.78;;;-142.97;63.54
8451;BME280;4262;50.980;13.892;2024-02-15T07:30:20;87085.50;;;-142.97;63.83
8451;BME280;4262;50.980;13.892;2024-02-15T07:32:48;86983.03;;;-142.97;63.51
8451;BME280;4262;50.980;13.892;2024-02-15T07:35:15;87152.50;;;-142.97;64.11
8451;BME280;4262;50.980;13.892;2024-02-15T07:37:51;87010.63;;;-142.97;63.41
8451;BME280;4262;50.980;13.892;2024-02-15T07:40:18;86961.34;;;-142.97;63.15
8451;BME280;4262;50.980;13.892;2024-02-15T07:42:47;86874.66;;;-142.97;62.68
8451;BME280;4262;50.980;13.892;2024-02-15T07:45:14;86785.97;;;-142.97;62.39
8451;BME280;4262;50.980;13.892;2024-02-15T07:47:41;86768.22;;;-142.97;62.22
8451;BME280;4262;50.980;13.892;2024-02-15T07:50:10;86784.00;;;-142.97;62.48
8451;BME280;4262;50.980;13.892;2024-02-15T07:52:38;86770.19;;;-142.97;62.02
8451;BME280;4262;50.980;13.892;2024-02-15T07:55:05;86795.81;;;-142.97;62.31
8451;BME280;4262;50.980;13.892;2024-02-15T07:57:34;86866.75;;;-142.97;62.67
8451;BME280;4262;50.980;13.892;2024-02-15T08:00:01;86910.13;;;-142.97;63.20
8451;BME280;4262;50.980;13.892;2024-02-15T08:02:37;86770.19;;;-142.97;62.41
8451;BME280;4262;50.980;13.892;2024-02-15T08:05:06;86677.59;;;-142.97;61.77
8451;BME280;4262;50.980;13.892;2024-02-15T08:07:41;86768.22;;;-142.97;62.26
8451;BME280;4262;50.980;13.892;2024-02-15T08:10:10;86776.13;;;-142.97;62.52
8451;BME280;4262;50.980;13.892;2024-02-15T08:12:39;86791.88;;;-142.97;62.36
8451;BME280;4262;50.980;13.892;2024-02-15T08:15:07;86750.50;;;-142.97;62.21
8451;BME280;4262;50.980;13.892;2024-02-15T08:17:38;86852.97;;;-142.97;62.33
8451;BME280;4262;50.980;13.892;2024-02-15T08:20:10;86454.94;;;-142.97;61.00
8451;BME280;4262;50.980;13.892;2024-02-15T08:22:39;86445.06;;;-142.97;60.53
8451;BME280;4262;50.980;13.892;2024-02-15T08:25:07;86326.84;;;-142.97;59.92
8451;BME280;4262;50.980;13.892;2024-02-15T08:27:37;86342.63;;;-142.97;60.26
8451;BME280;4262;50.980;13.892;2024-02-15T08:30:08;86324.88;;;-142.97;60.16
8451;BME280;4262;50.980;13.892;2024-02-15T08:32:35;86317.00;;;-142.97;59.79
8451;BME280;4262;50.980;13.892;2024-02-15T08:35:02;86309.13;;;-142.97;59.32
8451;BME280;4262;50.980;13.892;2024-02-15T08:37:30;86289.41;;;-142.97;59.64
8451;BME280;4262;50.980;13.892;2024-02-15T08:39:59;86253.94;;;-142.97;59.44
8451;BME280;4262;50.980;13.892;2024-02-15T08:42:26;86183.03;;;-142.97;59.01
8451;BME280;4262;50.980;13.892;2024-02-15T08:44:53;86165.28;;;-142.97;58.43
8451;BME280;4262;50.980;13.892;2024-02-15T08:47:19;86121.94;;;-142.97;59.02
8451;BME280;4262;50.980;13.892;2024-02-15T08:49:46;85859.91;;;-142.97;58.15
8451;BME280;4262;50.980;13.892;2024-02-15T08:52:13;85688.53;;;-142.97;55.05
8451;BME280;4262;50.980;13.892;2024-02-15T08:54:40;85808.69;;;-142.97;54.99
8451;BME280;4262;50.980;13.892;2024-02-15T08:57:08;85767.31;;;-142.97;54.53
8451;BME280;4262;50.980;13.892;2024-02-15T08:59:38;85718.06;;;-142.97;55.21
8451;BME280;4262;50.980;13.892;2024-02-15T09:02:08;85436.38;;;-142.97;54.84
8451;BME280;4262;50.980;13.892;2024-02-15T09:04:35;85603.81;;;-142.97;53.03
8451;BME280;4262;50.980;13.892;2024-02-15T09:07:02;85672.78;;;-142.97;53.83
8451;BME280;4262;50.980;13.892;2024-02-15T09:09:30;85724.00;;;-142.97;54.55
8451;BME280;4262;50.980;13.892;2024-02-15T09:11:57;85714.13;;;-142.97;53.24
8451;BME280;4262;50.980;13.892;2024-02-15T09:14:25;85739.75;;;-142.97;53.15
8451;BME280;4262;50.980;13.892;2024-02-15T09:16:52;85747.63;;;-142.97;53.10
8451;BME280;4262;50.980;13.892;2024-02-15T09:19:18;85966.31;;;-142.97;55.88
8451;BME280;4262;50.980;13.892;2024-02-15T09:21:45;86104.22;;;-142.97;57.63
8451;BME280;4262;50.980;13.892;2024-02-15T09:24:12;86157.41;;;-142.97;58.24
8451;BME280;4262;50.980;13.892;2024-02-15T09:26:41;86086.47;;;-142.97;57.51
8451;BME280;4262;50.980;13.892;2024-02-15T09:29:08;86242.13;;;-142.97;58.78
8451;BME280;4262;50.980;13.892;2024-02-15T09:31:36;86236.22;;;-142.97;58.93
8451;BME280;4262;50.980;13.892;2024-02-15T09:34:05;86169.22;;;-142.97;58.83
8451;BME280;4262;50.980;13.892;2024-02-15T09:36:34;86251.97;;;-142.97;59.07
8451;BME280;4262;50.980;13.892;2024-02-15T09:39:00;86277.59;;;-142.97;59.62
8451;BME280;4262;50.980;13.892;2024-02-15T09:41:27;86070.72;;;-142.97;58.24
8451;BME280;4262;50.980;13.892;2024-02-15T09:43:54;86062.84;;;-142.97;57.93
8451;BME280;4262;50.980;13.892;2024-02-15T09:46:21;86102.25;;;-142.97;58.27
8451;BME280;4262;50.980;13.892;2024-02-15T09:48:50;86110.13;;;-142.97;58.54
8451;BME280;4262;50.980;13.892;2024-02-15T09:51:25;86086.47;;;-142.97;57.81
8451;BME280;4262;50.980;13.892;2024-02-15T09:53:56;86088.44;;;-142.97;57.94
8451;BME280;4262;50.980;13.892;2024-02-15T09:56:24;86206.66;;;-142.97;58.65
8451;BME280;4262;50.980;13.892;2024-02-15T09:58:54;86380.06;;;-142.97;60.18
8451;BME280;4262;50.980;13.892;2024-02-15T10:01:23;86405.66;;;-142.97;60.47
8451;BME280;4262;50.980;13.892;2024-02-15T10:03:51;86437.19;;;-142.97;60.28
8451;BME280;4262;50.980;13.892;2024-02-15T10:06:18;86387.94;;;-142.97;60.50
8451;BME280;4262;50.980;13.892;2024-02-15T10:08:45;86183.03;;;-142.97;58.48
8451;BME280;4262;50.980;13.892;2024-02-15T10:11:13;86259.88;;;-142.97;59.29
8451;BME280;4262;50.980;13.892;2024-02-15T10:13:41;86382.03;;;-142.97;59.92
8451;BME280;4262;50.980;13.892;2024-02-15T10:16:16;86269.72;;;-142.97;59.69
8451;BME280;4262;50.980;13.892;2024-02-15T10:18:44;86281.53;;;-142.97;59.04
8451;BME280;4262;50.980;13.892;2024-02-15T10:21:25;86218.50;;;-142.97;58.65
8451;BME280;4262;50.980;13.892;2024-02-15T10:24:04;86450.97;;;-142.97;60.04
8451;BME280;4262;50.980;13.892;2024-02-15T10:26:32;86409.59;;;-142.97;60.72
8451;BME280;4262;50.980;13.892;2024-02-15T10:29:08;86411.56;;;-142.97;60.21
8451;BME280;4262;50.980;13.892;2024-02-15T10:31:37;86131.78;;;-142.97;58.35
8451;BME280;4262;50.980;13.892;2024-02-15T10:34:06;86102.25;;;-142.97;58.54
8451;BME280;4262;50.980;13.892;2024-02-15T10:36:34;85956.44;;;-142.97;57.08
8451;BME280;4262;50.980;13.892;2024-02-15T10:39:10;86043.13;;;-142.97;57.41
8451;BME280;4262;50.980;13.892;2024-02-15T10:41:44;85930.84;;;-142.97;56.58
8451;BME280;4262;50.980;13.892;2024-02-15T10:44:15;85893.41;;;-142.97;55.68
8451;BME280;4262;50.980;13.892;2024-02-15T10:46:44;85863.84;;;-142.97;55.70
8451;BME280;4262;50.980;13.892;2024-02-15T10:49:12;85873.72;;;-142.97;55.46
8451;BME280;4262;50.980;13.892;2024-02-15T10:51:43;85832.34;;;-142.97;55.28
8451;BME280;4262;50.980;13.892;2024-02-15T10:54:12;85921.00;;;-142.97;55.64
8451;BME280;4262;50.980;13.892;2024-02-15T10:56:43;85727.94;;;-142.97;55.82
8451;BME280;4262;50.980;13.892;2024-02-15T10:59:16;85765.34;;;-142.97;55.65
8451;BME280;4262;50.980;13.892;2024-02-15T11:01:45;85735.81;;;-142.97;55.97
8451;BME280;4262;50.980;13.892;2024-02-15T11:04:14;85530.94;;;-142.97;53.79
8451;BME280;4262;50.980;13.892;2024-02-15T11:06:44;85621.56;;;-142.97;53.79
8451;BME280;4262;50.980;13.892;2024-02-15T11:09:12;85611.69;;;-142.97;53.95
8451;BME280;4262;50.980;13.892;2024-02-15T11:11:40;85592.00;;;-142.97;53.10
8451;BME280;4262;50.980;13.892;2024-02-15T11:14:23;85629.44;;;-142.97;53.90
8451;BME280;4262;50.980;13.892;2024-02-15T11:16:50;85631.41;;;-142.97;54.49
8451;BME280;4262;50.980;13.892;2024-02-15T11:19:42;85601.84;;;-142.97;52.71
8451;BME280;4262;50.980;13.892;2024-02-15T11:22:13;85595.94;;;-142.97;54.29
8451;BME280;4262;50.980;13.892;2024-02-15T11:24:51;85662.91;;;-142.97;53.66
8451;BME280;4262;50.980;13.892;2024-02-15T11:27:28;85625.50;;;-142.97;53.03
8451;BME280;4262;50.980;13.892;2024-02-15T11:29:56;85682.63;;;-142.97;53.87
8451;BME280;4262;50.980;13.892;2024-02-15T11:32:50;85690.50;;;-142.97;53.69
8451;BME280;4262;50.980;13.892;2024-02-15T11:35:19;85489.56;;;-142.97;53.56
8451;BME280;4262;50.980;13.892;2024-02-15T11:37:56;85710.19;;;-142.97;54.12
8451;BME280;4262;50.980;13.892;2024-02-15T11:40:59;85690.50;;;-142.97;53.68
8451;BME280;4262;50.980;13.892;2024-02-15T11:43:46;85658.97;;;-142.97;53.04
8451;BME280;4262;50.980;13.892;2024-02-15T11:46:16;85658.97;;;-142.97;53.55
8451;BME280;4262;50.980;13.892;2024-02-15T11:48:43;85615.63;;;-142.97;52.89
8451;BME280;4262;50.980;13.892;2024-02-15T11:51:10;85562.47;;;-142.97;52.48
8451;BME280;4262;50.980;13.892;2024-02-15T11:53:39;85527.00;;;-142.97;51.42
8451;BME280;4262;50.980;13.892;2024-02-15T11:56:06;85694.44;;;-142.97;53.10
8451;BME280;4262;50.980;13.892;2024-02-15T11:58:36;85660.94;;;-142.97;53.63
8451;BME280;4262;50.980;13.892;2024-02-15T12:01:18;85655.03;;;-142.97;53.56
8451;BME280;4262;50.980;13.892;2024-02-15T12:04:12;85570.34;;;-142.97;52.91
8451;BME280;4262;50.980;13.892;2024-02-15T12:06:56;85509.28;;;-142.97;52.38
8451;BME280;4262;50.980;13.892;2024-02-15T12:09:43;85517.16;;;-142.97;51.54
8451;BME280;4262;50.980;13.892;2024-02-15T12:12:28;85566.41;;;-142.97;52.50
8451;BME280;4262;50.980;13.892;2024-02-15T12:15:12;85521.09;;;-142.97;53.07
8451;BME280;4262;50.980;13.892;2024-02-15T12:18:15;85371.38;;;-142.97;53.02
8451;BME280;4262;50.980;13.892;2024-02-15T12:20:59;85357.59;;;-142.97;51.54
8451;BME280;4262;50.980;13.892;2024-02-15T12:23:28;85322.13;;;-142.97;51.91
8451;BME280;4262;50.980;13.892;2024-02-15T12:25:57;85395.03;;;-142.97;50.73
8451;BME280;4262;50.980;13.892;2024-02-15T12:28:24;85446.22;;;-142.97;51.68
8451;BME280;4262;50.980;13.892;2024-02-15T12:30:55;85462.00;;;-142.97;51.37
8451;BME280;4262;50.980;13.892;2024-02-15T12:33:22;85509.28;;;-142.97;52.43
8451;BME280;4262;50.980;13.892;2024-02-15T12:35:49;85412.75;;;-142.97;53.09
8451;BME280;4262;50.980;13.892;2024-02-15T12:38:17;85333.94;;;-142.97;51.70
8451;BME280;4262;50.980;13.892;2024-02-15T12:40:44;85274.88;;;-142.97;51.34
8451;BME280;4262;50.980;13.892;2024-02-15T12:43:12;85137.00;;;-142.97;49.79
8451;BME280;4262;50.980;13.892;2024-02-15T12:45:40;85117.28;;;-142.97;48.28
8451;BME280;4262;50.980;13.892;2024-02-15T12:48:08;85265.00;;;-142.97;48.96
8451;BME280;4262;50.980;13.892;2024-02-15T12:50:36;85389.09;;;-142.97;50.29
8451;BME280;4262;50.980;13.892;2024-02-15T12:53:03;85314.25;;;-142.97;50.64
8451;BME280;4262;50.980;13.892;2024-02-15T12:55:32;85320.16;;;-142.97;50.19
8451;BME280;4262;50.980;13.892;2024-02-15T12:58:00;85247.28;;;-142.97;49.94
8451;BME280;4262;50.980;13.892;2024-02-15T13:00:31;85251.22;;;-142.97;50.22